Pagrindinis puslapis
METAR-TAF:

METAR-TAF

Oro uostai :

Hohhot, Kinija

platuma: 40-49N, ilguma: 111-41E, Aukštis: 1065 m

Dabartinis oras

Ataskaita buvo paskelbta 1 valandą ir 2 minutes, ne 08:00 UTC
Vėjas 2 kt iš Pietų
Temperatūra -1°C
Drėgmė 43%
Slėgis 1016 hPa
Matomumas 10 km arba daugiau
nėra debesų žemiau 1500 m ir nėra kamuolinių lietaus debesų

METAR: ZBHH 210800Z 19001MPS CAVOK M01/M12 Q1016 NOSIG

Laikas: 17:02 (09:02 UTC)

Prognozė

Ataskaita buvo paskelbta 6 valandos ir 1 minutes, ne 03:01 UTC
Prognozė galioja nuo 21 metu 06 UTC su 22 metu 06 UTC
Vėjas 8 kt iš Pietvakarių
Matomumas: 7000 m

TAF: ZBHH 210301Z 2106/2206 23004MPS 7000 NSC TXM04/2107Z TNM16/2123Z

Orai ataskaitas ir orų prognozės (METAR, TAF).

turimą stotys yra geltonos ir raudonos taškus žemėlapyje.

Perkelti pele per norėdami pamatyti stoties vardą.

Tada spustelėkite, norėdami matyti oro stebėjimo ir prognozės.

Norėdami pakeisti žemėlapį: spustelėkite ant žalios mygtukų su juodo kryžiaus žemyn,; žalią mygtuką su brūkšneliu, jei norite nutolinti; arba žalių rodyklių gretimoms žemėlapius.


METAR-TAF: